Time;durP1;ratioP1;P1;durP2;ratioP2;P2;SDS_P1;SDS_P2;PMS_P1;PMS_P2;Temp;Humidity;BMP_temperature;BMP_pressure;BME280_temperature;BME280_humidity;BME280_pressure;Samples;Min_cycle;Max_cycle;Signal;HPM_P1;HPM_P2
2023/02/21 02:14:19;;;;;;;0.75;0.75;;;;;;;;;;5052524;28;20509;-50
2023/02/21 02:16:50;;;;;;;0.80;0.80;;;;;;;;;;5056416;28;20196;-51
2023/02/21 02:19:27;;;;;;;1.95;1.00;;;;;;;;;;5052881;28;20182;-51
2023/02/21 02:22:12;;;;;;;1.13;0.80;;;;;;;;;;5056958;28;20264;-51
2023/02/21 02:24:54;;;;;;;1.65;0.95;;;;;;;;;;5063769;28;20198;-51
2023/02/21 02:27:30;;;;;;;0.80;0.80;;;;;;;;;;5058046;28;20294;-51
2023/02/21 02:30:10;;;;;;;0.93;0.93;;;;;;;;;;5071996;28;20246;-51
2023/02/21 02:32:55;;;;;;;0.98;0.98;;;;;;;;;;5056544;28;20222;-51
2023/02/21 02:35:26;;;;;;;0.70;0.70;;;;;;;;;;5055656;28;20233;-51
2023/02/21 02:37:56;;;;;;;1.67;1.00;;;;;;;;;;5059229;28;20175;-51
2023/02/21 02:40:46;;;;;;;0.60;0.60;;;;;;;;;;5060896;28;20847;-50
2023/02/21 02:43:30;;;;;;;1.10;0.70;;;;;;;;;;5060611;28;20249;-51
2023/02/21 02:46:08;;;;;;;0.63;0.63;;;;;;;;;;5053903;28;20254;-51
2023/02/21 02:48:36;;;;;;;0.65;0.65;;;;;;;;;;5052439;28;20489;-50
2023/02/21 02:51:03;;;;;;;0.70;0.70;;;;;;;;;;5052633;28;20252;-51
2023/02/21 02:53:30;;;;;;;0.77;0.70;;;;;;;;;;5052725;28;21056;-51
2023/02/21 02:55:57;;;;;;;0.60;0.60;;;;;;;;;;5056781;28;20208;-50
2023/02/21 02:58:25;;;;;;;1.10;0.93;;;;;;;;;;5051012;28;20205;-51
2023/02/21 03:01:00;;;;;;;0.70;0.70;;;;;;;;;;5058711;28;20206;-51
2023/02/21 03:03:38;;;;;;;0.93;0.70;;;;;;;;;;5050318;28;20205;-51
2023/02/21 03:06:07;;;;;;;0.52;0.50;;;;;;;;;;5053635;28;20175;-51
2023/02/21 03:08:33;;;;;;;1.17;0.80;;;;;;;;;;5059023;28;20198;-51
2023/02/21 03:11:05;;;;;;;0.70;0.70;;;;;;;;;;5067600;28;20613;-51
2023/02/21 03:13:31;;;;;;;0.73;0.73;;;;;;;;;;5054949;28;20179;-51
2023/02/21 03:16:02;;;;;;;0.60;0.60;;;;;;;;;;5054076;28;20461;-50
2023/02/21 03:18:31;;;;;;;1.20;0.80;;;;;;;;;;5063965;28;20178;-50
2023/02/21 03:20:59;;;;;;;0.55;0.55;;;;;;;;;;5057181;28;20458;-50
2023/02/21 03:23:27;;;;;;;0.70;0.70;;;;;;;;;;5073017;28;20221;-51
2023/02/21 03:25:53;;;;;;;0.63;0.63;;;;;;;;;;5073548;28;20236;-51
2023/02/21 03:28:19;;;;;;;0.80;0.80;;;;;;;;;;5064401;28;20218;-50
2023/02/21 03:30:47;;;;;;;0.70;0.70;;;;;;;;;;5063310;28;20258;-51
2023/02/21 03:33:13;;;;;;;0.60;0.60;;;;;;;;;;5056597;28;20380;-51
2023/02/21 03:35:39;;;;;;;0.70;0.70;;;;;;;;;;5057359;28;20584;-51
2023/02/21 03:38:05;;;;;;;0.77;0.63;;;;;;;;;;5063005;28;20182;-50
2023/02/21 03:40:32;;;;;;;0.70;0.70;;;;;;;;;;5057253;28;20176;-50
2023/02/21 03:42:59;;;;;;;0.70;0.70;;;;;;;;;;5045578;28;20214;-50
2023/02/21 03:45:24;;;;;;;0.60;0.60;;;;;;;;;;5051745;28;20171;-50
2023/02/21 03:47:51;;;;;;;0.65;0.65;;;;;;;;;;5055205;28;20206;-51
2023/02/21 03:50:17;;;;;;;0.60;0.60;;;;;;;;;;5058744;28;20178;-51
2023/02/21 03:52:42;;;;;;;1.77;0.70;;;;;;;;;;5054521;28;20199;-51
2023/02/21 03:55:09;;;;;;;0.52;0.52;;;;;;;;;;5057163;28;20570;-51
2023/02/21 03:57:35;;;;;;;0.85;0.50;;;;;;;;;;5053007;28;20203;-51
2023/02/21 04:00:01;;;;;;;0.70;0.70;;;;;;;;;;5063246;28;20496;-49
2023/02/21 04:02:27;;;;;;;0.47;0.47;;;;;;;;;;5048120;28;20176;-51
2023/02/21 04:04:53;;;;;;;0.55;0.50;;;;;;;;;;5061985;28;20187;-51
2023/02/21 04:07:19;;;;;;;0.50;0.50;;;;;;;;;;5066996;28;20305;-50
2023/02/21 04:09:46;;;;;;;0.65;0.55;;;;;;;;;;5053777;28;20194;-51
2023/02/21 04:12:12;;;;;;;0.57;0.57;;;;;;;;;;5057319;28;20289;-51
2023/02/21 04:14:38;;;;;;;0.55;0.55;;;;;;;;;;5061532;28;20322;-51
2023/02/21 04:17:04;;;;;;;0.57;0.57;;;;;;;;;;5052549;28;20270;-50
2023/02/21 04:19:30;;;;;;;0.70;0.70;;;;;;;;;;5062379;28;20322;-50
2023/02/21 04:21:56;;;;;;;1.38;0.75;;;;;;;;;;5053368;28;20188;-51
2023/02/21 04:24:22;;;;;;;0.70;0.70;;;;;;;;;;5064183;28;20183;-50
2023/02/21 04:26:48;;;;;;;0.57;0.57;;;;;;;;;;5060371;28;20574;-50
2023/02/21 04:29:14;;;;;;;0.82;0.60;;;;;;;;;;5060941;28;20203;-50
2023/02/21 04:31:40;;;;;;;0.70;0.70;;;;;;;;;;5061803;28;20501;-51
2023/02/21 04:34:06;;;;;;;3.00;0.60;;;;;;;;;;5052227;28;20188;-53
2023/02/21 04:36:32;;;;;;;2.00;0.75;;;;;;;;;;5062903;28;20202;-50
2023/02/21 04:38:58;;;;;;;0.47;0.47;;;;;;;;;;5055267;28;20187;-53
2023/02/21 04:41:24;;;;;;;0.75;0.75;;;;;;;;;;5061660;28;20183;-53
2023/02/21 04:43:51;;;;;;;1.77;0.52;;;;;;;;;;5062452;28;20225;-53
2023/02/21 04:46:17;;;;;;;0.85;0.70;;;;;;;;;;5057016;28;20554;-53
2023/02/21 04:48:44;;;;;;;2.42;0.80;;;;;;;;;;5063436;28;20193;-53
2023/02/21 04:51:10;;;;;;;0.80;0.80;;;;;;;;;;5052737;28;20203;-53
2023/02/21 04:53:36;;;;;;;0.70;0.70;;;;;;;;;;5057206;28;20174;-53
2023/02/21 04:56:02;;;;;;;0.80;0.80;;;;;;;;;;5069859;28;20180;-53
2023/02/21 04:58:29;;;;;;;1.52;0.80;;;;;;;;;;5069724;28;20259;-53
2023/02/21 05:00:55;;;;;;;0.80;0.80;;;;;;;;;;5056260;28;20175;-53
2023/02/21 05:03:20;;;;;;;0.90;0.80;;;;;;;;;;5067559;28;20181;-53
2023/02/21 05:05:46;;;;;;;2.42;1.15;;;;;;;;;;5060069;28;20180;-52
2023/02/21 05:08:12;;;;;;;12.82;3.20;;;;;;;;;;5047764;28;20268;-52
2023/02/21 05:10:38;;;;;;;16.95;3.13;;;;;;;;;;5051113;28;20182;-52
2023/02/21 05:13:04;;;;;;;8.05;3.17;;;;;;;;;;5065645;28;20212;-52
2023/02/21 05:15:30;;;;;;;13.68;3.58;;;;;;;;;;5059618;28;20478;-52
2023/02/21 05:17:56;;;;;;;10.63;3.40;;;;;;;;;;5055744;28;20633;-52
2023/02/21 05:20:22;;;;;;;12.35;3.20;;;;;;;;;;5050245;28;20202;-52
2023/02/21 05:22:48;;;;;;;14.95;4.53;;;;;;;;;;5049845;28;20176;-52
2023/02/21 05:25:19;;;;;;;12.95;3.70;;;;;;;;;;5053894;28;20232;-52
2023/02/21 05:27:46;;;;;;;12.00;3.50;;;;;;;;;;5056390;28;20183;-52
2023/02/21 05:30:13;;;;;;;12.43;3.00;;;;;;;;;;5053594;28;20205;-52
2023/02/21 05:32:39;;;;;;;9.60;3.22;;;;;;;;;;5059227;28;20210;-52
2023/02/21 05:35:06;;;;;;;5.88;2.72;;;;;;;;;;5056801;28;20774;-52
2023/02/21 05:37:32;;;;;;;11.32;3.42;;;;;;;;;;5054159;28;20209;-52
2023/02/21 05:39:59;;;;;;;11.98;2.90;;;;;;;;;;5055606;28;20555;-52
2023/02/21 05:42:24;;;;;;;11.18;2.85;;;;;;;;;;5065447;28;20265;-52
2023/02/21 05:44:50;;;;;;;7.90;2.70;;;;;;;;;;5061032;28;20269;-52
2023/02/21 05:47:16;;;;;;;11.00;2.63;;;;;;;;;;5056741;28;20827;-52
2023/02/21 05:49:43;;;;;;;8.27;2.72;;;;;;;;;;5060562;28;20567;-52
2023/02/21 05:52:12;;;;;;;6.25;2.58;;;;;;;;;;5055425;28;20523;-52
2023/02/21 05:54:38;;;;;;;5.57;2.55;;;;;;;;;;5065654;28;20495;-52
2023/02/21 05:57:04;;;;;;;7.90;2.88;;;;;;;;;;5057875;28;20213;-52
2023/02/21 05:59:30;;;;;;;8.35;2.92;;;;;;;;;;5051915;28;20183;-52
2023/02/21 06:01:56;;;;;;;6.75;2.40;;;;;;;;;;5052384;28;20206;-53
2023/02/21 06:04:22;;;;;;;6.68;2.78;;;;;;;;;;5054219;28;20434;-52
2023/02/21 06:06:48;;;;;;;8.57;2.80;;;;;;;;;;5054557;28;20273;-52
2023/02/21 06:09:14;;;;;;;5.93;1.90;;;;;;;;;;5060361;28;20218;-52
2023/02/21 06:11:40;;;;;;;8.20;2.30;;;;;;;;;;5062448;28;20245;-52
2023/02/21 06:14:14;;;;;;;7.32;2.55;;;;;;;;;;5062164;28;20179;-52
2023/02/21 06:16:39;;;;;;;5.97;2.17;;;;;;;;;;5060236;28;20183;-52
2023/02/21 06:19:07;;;;;;;6.60;2.20;;;;;;;;;;5066709;28;20213;-52
2023/02/21 06:21:34;;;;;;;6.88;2.63;;;;;;;;;;5045564;28;20176;-52
2023/02/21 06:24:00;;;;;;;4.63;2.13;;;;;;;;;;5064025;28;20237;-52
2023/02/21 06:26:26;;;;;;;5.10;2.50;;;;;;;;;;5051257;28;20213;-52
2023/02/21 06:28:52;;;;;;;7.90;2.58;;;;;;;;;;5049478;28;20195;-52
2023/02/21 06:31:18;;;;;;;3.92;1.98;;;;;;;;;;5061943;28;20207;-52
2023/02/21 06:33:44;;;;;;;5.13;2.15;;;;;;;;;;5056846;28;20595;-52
2023/02/21 06:36:13;;;;;;;4.68;1.80;;;;;;;;;;5063926;28;20194;-52
2023/02/21 06:38:39;;;;;;;4.88;2.20;;;;;;;;;;5068314;28;20620;-52
2023/02/21 06:41:05;;;;;;;5.05;2.30;;;;;;;;;;5057903;28;20186;-52
2023/02/21 06:43:31;;;;;;;5.43;2.13;;;;;;;;;;5066424;28;20194;-52
2023/02/21 06:45:57;;;;;;;3.80;1.92;;;;;;;;;;5057921;28;20238;-52
2023/02/21 06:48:23;;;;;;;5.03;1.90;;;;;;;;;;5064795;28;20178;-52
2023/02/21 06:50:49;;;;;;;4.47;1.98;;;;;;;;;;5065940;28;20210;-52
2023/02/21 06:53:15;;;;;;;4.53;2.13;;;;;;;;;;5064005;28;20257;-52
2023/02/21 06:55:41;;;;;;;3.47;1.52;;;;;;;;;;5049522;28;20183;-52
2023/02/21 06:58:07;;;;;;;6.18;1.83;;;;;;;;;;5058046;28;20176;-52
2023/02/21 07:00:33;;;;;;;3.17;1.88;;;;;;;;;;5057091;28;20209;-52
2023/02/21 07:02:59;;;;;;;4.38;1.75;;;;;;;;;;5065408;28;20267;-52
2023/02/21 07:05:24;;;;;;;4.97;2.30;;;;;;;;;;5065787;28;20175;-52
2023/02/21 07:07:50;;;;;;;4.13;1.83;;;;;;;;;;5051573;28;20191;-52
2023/02/21 07:10:17;;;;;;;4.22;1.90;;;;;;;;;;5053722;28;20179;-52
2023/02/21 07:12:42;;;;;;;3.25;1.65;;;;;;;;;;5057121;28;20207;-52
2023/02/21 07:15:09;;;;;;;3.65;1.70;;;;;;;;;;5060365;28;20247;-52
2023/02/21 07:17:35;;;;;;;2.53;1.58;;;;;;;;;;5053550;28;20178;-52
2023/02/21 07:20:01;;;;;;;2.40;1.80;;;;;;;;;;5057891;28;20188;-52
2023/02/21 07:22:27;;;;;;;2.88;1.80;;;;;;;;;;5061125;28;20562;-52
2023/02/21 07:24:53;;;;;;;3.75;1.70;;;;;;;;;;5066102;28;20245;-52
2023/02/21 07:27:19;;;;;;;3.60;1.70;;;;;;;;;;5053400;28;20178;-52
2023/02/21 07:29:49;;;;;;;3.60;1.60;;;;;;;;;;5061206;28;20286;-52
2023/02/21 07:32:15;;;;;;;3.40;1.50;;;;;;;;;;5060287;28;20219;-52
2023/02/21 07:34:41;;;;;;;4.30;1.80;;;;;;;;;;5058729;28;20211;-52
2023/02/21 07:37:08;;;;;;;4.47;1.70;;;;;;;;;;5058921;28;20258;-52
2023/02/21 07:39:33;;;;;;;1.75;1.38;;;;;;;;;;5056131;28;20226;-52
2023/02/21 07:41:59;;;;;;;2.85;1.58;;;;;;;;;;5051166;28;20199;-52
2023/02/21 07:44:25;;;;;;;2.67;1.60;;;;;;;;;;5049371;28;20179;-52
2023/02/21 07:46:51;;;;;;;3.28;1.55;;;;;;;;;;5063386;28;20175;-52
2023/02/21 07:49:17;;;;;;;2.63;1.50;;;;;;;;;;5059203;28;20183;-52
2023/02/21 07:51:43;;;;;;;2.13;1.50;;;;;;;;;;5055292;28;20211;-52
2023/02/21 07:54:09;;;;;;;3.22;1.67;;;;;;;;;;5059513;28;22460;-52
2023/02/21 07:56:35;;;;;;;3.45;1.55;;;;;;;;;;5061197;28;20253;-52
2023/02/21 07:59:01;;;;;;;2.78;1.70;;;;;;;;;;5054017;28;20578;-52
2023/02/21 08:01:27;;;;;;;3.08;1.58;;;;;;;;;;5051662;28;20179;-52
2023/02/21 08:03:53;;;;;;;1.88;1.58;;;;;;;;;;5055449;28;20494;-52
2023/02/21 08:06:19;;;;;;;2.47;1.85;;;;;;;;;;5061928;28;20187;-52
2023/02/21 08:08:45;;;;;;;3.42;1.52;;;;;;;;;;5062070;28;20193;-52
2023/02/21 08:11:11;;;;;;;1.95;1.40;;;;;;;;;;5060396;28;20214;-52
2023/02/21 08:13:37;;;;;;;4.18;1.80;;;;;;;;;;5063913;28;20176;-52
2023/02/21 08:16:03;;;;;;;2.22;1.48;;;;;;;;;;5056193;28;20183;-52
2023/02/21 08:18:28;;;;;;;2.25;1.70;;;;;;;;;;5065886;28;20607;-52
2023/02/21 08:20:56;;;;;;;2.50;1.48;;;;;;;;;;5059796;28;20183;-52
2023/02/21 08:23:22;;;;;;;2.40;1.60;;;;;;;;;;5059287;28;20175;-52
2023/02/21 08:25:48;;;;;;;2.25;1.50;;;;;;;;;;5066022;28;20181;-52
2023/02/21 08:28:14;;;;;;;1.73;1.40;;;;;;;;;;5064099;28;20190;-52
2023/02/21 08:30:40;;;;;;;2.40;1.40;;;;;;;;;;5048296;28;20199;-52
2023/02/21 08:33:06;;;;;;;2.15;1.48;;;;;;;;;;5056829;28;20211;-52
2023/02/21 08:35:32;;;;;;;1.90;1.40;;;;;;;;;;5054077;28;20493;-52
2023/02/21 08:38:01;;;;;;;1.55;1.45;;;;;;;;;;5057408;28;20221;-52
2023/02/21 08:40:29;;;;;;;2.25;1.67;;;;;;;;;;5057188;28;20182;-52
2023/02/21 08:42:55;;;;;;;2.03;1.55;;;;;;;;;;5058294;28;20176;-52
2023/02/21 08:45:22;;;;;;;2.63;1.65;;;;;;;;;;5059647;28;20191;-52
2023/02/21 08:47:48;;;;;;;2.40;1.42;;;;;;;;;;5060503;28;20201;-52
2023/02/21 08:50:14;;;;;;;1.77;1.40;;;;;;;;;;5054274;28;20187;-52
2023/02/21 08:52:40;;;;;;;1.67;1.45;;;;;;;;;;5046746;28;20221;-52
2023/02/21 08:55:07;;;;;;;2.15;1.48;;;;;;;;;;5063932;28;20194;-52
2023/02/21 08:57:33;;;;;;;1.73;1.20;;;;;;;;;;5058891;28;20190;-52
2023/02/21 08:59:59;;;;;;;2.42;1.20;;;;;;;;;;5060269;28;20584;-52
2023/02/21 09:02:27;;;;;;;1.30;1.15;;;;;;;;;;5057117;28;20268;-52
2023/02/21 09:04:56;;;;;;;2.20;1.58;;;;;;;;;;5049905;28;20176;-52
2023/02/21 09:07:22;;;;;;;1.48;1.30;;;;;;;;;;5065203;28;20194;-52
2023/02/21 09:09:48;;;;;;;1.50;1.40;;;;;;;;;;5069718;28;20572;-52
2023/02/21 09:12:14;;;;;;;2.03;1.60;;;;;;;;;;5065760;28;20312;-52
2023/02/21 09:14:41;;;;;;;1.60;1.45;;;;;;;;;;5050266;28;20550;-52
2023/02/21 09:17:07;;;;;;;2.38;1.40;;;;;;;;;;5045646;28;20462;-52
2023/02/21 09:19:33;;;;;;;2.22;1.25;;;;;;;;;;5046010;28;20214;-52
2023/02/21 09:21:59;;;;;;;1.90;1.35;;;;;;;;;;5066596;28;20186;-52
2023/02/21 09:24:26;;;;;;;1.88;1.15;;;;;;;;;;5058800;28;20185;-52
2023/02/21 09:26:53;;;;;;;1.73;1.50;;;;;;;;;;5058709;28;20187;-52
2023/02/21 09:29:23;;;;;;;1.20;1.10;;;;;;;;;;5059507;28;20195;-52
2023/02/21 09:31:49;;;;;;;2.05;1.23;;;;;;;;;;5054402;28;20444;-52
2023/02/21 09:34:15;;;;;;;1.88;1.50;;;;;;;;;;5042863;28;20583;-52
2023/02/21 09:36:41;;;;;;;2.65;1.33;;;;;;;;;;5056228;28;20174;-52
2023/02/21 09:39:08;;;;;;;1.85;1.20;;;;;;;;;;5056905;28;20492;-52
2023/02/21 09:41:35;;;;;;;1.38;1.10;;;;;;;;;;5055991;28;20183;-52
2023/02/21 09:44:01;;;;;;;1.42;1.30;;;;;;;;;;5066041;28;20652;-52
2023/02/21 09:46:32;;;;;;;1.30;1.15;;;;;;;;;;5052092;28;20614;-52
2023/02/21 09:48:58;;;;;;;1.42;1.30;;;;;;;;;;5054662;28;20183;-52
2023/02/21 09:51:24;;;;;;;1.17;1.08;;;;;;;;;;5053605;28;20221;-52
2023/02/21 09:53:52;;;;;;;2.65;1.60;;;;;;;;;;5051889;28;20195;-52
2023/02/21 09:56:24;;;;;;;1.30;1.20;;;;;;;;;;5057879;28;20183;-52
2023/02/21 09:58:50;;;;;;;1.75;1.02;;;;;;;;;;5054947;28;20230;-52
2023/02/21 10:01:23;;;;;;;1.67;1.48;;;;;;;;;;5055580;28;20218;-52
2023/02/21 10:03:58;;;;;;;1.40;1.30;;;;;;;;;;5058719;28;20186;-52
2023/02/21 10:06:32;;;;;;;2.25;1.38;;;;;;;;;;5052606;28;20291;-52
2023/02/21 10:09:17;;;;;;;1.88;1.25;;;;;;;;;;5060036;28;20206;-52
2023/02/21 10:11:54;;;;;;;1.30;1.20;;;;;;;;;;5055659;28;20861;-52
2023/02/21 10:14:23;;;;;;;1.40;1.17;;;;;;;;;;5058135;28;20272;-52
2023/02/21 10:16:55;;;;;;;1.63;1.40;;;;;;;;;;5055183;28;20186;-52
2023/02/21 10:19:33;;;;;;;1.15;1.08;;;;;;;;;;5057531;28;20202;-52
2023/02/21 10:22:00;;;;;;;1.40;1.30;;;;;;;;;;5064112;28;20182;-52
2023/02/21 10:24:27;;;;;;;1.10;1.00;;;;;;;;;;5061442;28;20270;-52
2023/02/21 10:26:57;;;;;;;1.40;1.30;;;;;;;;;;5045400;28;20521;-52
2023/02/21 10:29:25;;;;;;;1.55;1.05;;;;;;;;;;5063008;28;20470;-52
2023/02/21 10:32:01;;;;;;;1.20;1.10;;;;;;;;;;5052502;28;20230;-52
2023/02/21 10:34:28;;;;;;;1.35;1.25;;;;;;;;;;5053028;28;20182;-52
2023/02/21 10:37:03;;;;;;;1.25;1.15;;;;;;;;;;5057314;28;20280;-52
2023/02/21 10:39:35;;;;;;;1.98;1.38;;;;;;;;;;5060483;28;20213;-52
2023/02/21 10:42:01;;;;;;;1.30;1.08;;;;;;;;;;5058368;28;20229;-52
2023/02/21 10:44:32;;;;;;;1.73;1.40;;;;;;;;;;5055130;28;20192;-52
2023/02/21 10:46:57;;;;;;;2.08;1.45;;;;;;;;;;5051955;28;20226;-52
2023/02/21 10:49:36;;;;;;;1.30;1.10;;;;;;;;;;5048943;28;20183;-52
2023/02/21 10:52:08;;;;;;;1.90;1.20;;;;;;;;;;5053083;28;20206;-52
2023/02/21 10:54:34;;;;;;;1.25;1.10;;;;;;;;;;5046409;28;20172;-52
2023/02/21 10:57:02;;;;;;;1.35;1.25;;;;;;;;;;5066888;28;20174;-52
2023/02/21 10:59:30;;;;;;;1.20;1.10;;;;;;;;;;5061826;28;20206;-52
2023/02/21 11:01:57;;;;;;;1.25;1.10;;;;;;;;;;5062301;28;20619;-52
2023/02/21 11:04:26;;;;;;;1.30;1.20;;;;;;;;;;5045093;28;20182;-52
2023/02/21 11:06:54;;;;;;;1.70;1.23;;;;;;;;;;5056594;28;20176;-52
2023/02/21 11:09:26;;;;;;;1.30;1.10;;;;;;;;;;5052187;28;20172;-52
2023/02/21 11:12:00;;;;;;;1.45;1.15;;;;;;;;;;5070488;28;20222;-52
2023/02/21 11:14:26;;;;;;;1.20;1.10;;;;;;;;;;5050293;28;20172;-52
2023/02/21 11:17:13;;;;;;;2.05;1.23;;;;;;;;;;5053037;28;20238;-52
2023/02/21 11:19:47;;;;;;;1.30;1.20;;;;;;;;;;5051098;28;20239;-52
2023/02/21 11:22:13;;;;;;;1.13;1.00;;;;;;;;;;5067101;28;20213;-52
2023/02/21 11:24:51;;;;;;;1.70;1.17;;;;;;;;;;5059499;28;20183;-52
2023/02/21 11:27:17;;;;;;;1.17;1.08;;;;;;;;;;5065035;28;20182;-52
2023/02/21 11:29:46;;;;;;;1.02;0.93;;;;;;;;;;5063423;28;20282;-52
2023/02/21 11:32:15;;;;;;;1.35;1.10;;;;;;;;;;5062690;28;20293;-52
2023/02/21 11:34:47;;;;;;;1.65;1.00;;;;;;;;;;5043779;28;20551;-52
2023/02/21 11:37:13;;;;;;;2.05;1.30;;;;;;;;;;5057525;28;20217;-52
2023/02/21 11:39:40;;;;;;;1.23;1.10;;;;;;;;;;5063998;28;20202;-52
2023/02/21 11:42:24;;;;;;;1.13;1.02;;;;;;;;;;5063992;28;20181;-52
2023/02/21 11:45:01;;;;;;;1.42;1.25;;;;;;;;;;5065500;28;20187;-52
2023/02/21 11:47:33;;;;;;;1.20;1.10;;;;;;;;;;5043768;28;20225;-52
2023/02/21 11:50:05;;;;;;;1.00;0.90;;;;;;;;;;5061633;28;21660;-52
2023/02/21 11:52:34;;;;;;;1.42;1.33;;;;;;;;;;5050048;28;20210;-52
2023/02/21 11:55:00;;;;;;;2.38;1.30;;;;;;;;;;5055774;28;20546;-52
2023/02/21 11:57:35;;;;;;;1.40;1.30;;;;;;;;;;5059254;28;20208;-52
2023/02/21 12:00:22;;;;;;;1.10;1.00;;;;;;;;;;5050491;28;20483;-52
2023/02/21 12:02:53;;;;;;;1.00;1.00;;;;;;;;;;5049910;28;20254;-52
2023/02/21 12:05:37;;;;;;;1.65;1.10;;;;;;;;;;5046932;28;20180;-52
2023/02/21 12:08:22;;;;;;;1.33;1.20;;;;;;;;;;5047657;28;20282;-52
2023/02/21 12:10:54;;;;;;;1.45;0.90;;;;;;;;;;5063835;28;20186;-52
2023/02/21 12:13:25;;;;;;;2.97;1.10;;;;;;;;;;5061349;28;20214;-52
2023/02/21 12:16:06;;;;;;;2.15;1.10;;;;;;;;;;5063519;28;20236;-52
2023/02/21 12:18:51;;;;;;;1.00;1.00;;;;;;;;;;5051852;28;20634;-52
2023/02/21 12:21:17;;;;;;;1.70;1.15;;;;;;;;;;5047738;28;20201;-52
2023/02/21 12:23:53;;;;;;;1.30;1.20;;;;;;;;;;5058187;28;20187;-52
2023/02/21 12:26:27;;;;;;;3.08;1.23;;;;;;;;;;5056642;28;20188;-52
2023/02/21 12:29:02;;;;;;;3.40;1.33;;;;;;;;;;5052811;28;20210;-52
2023/02/21 12:31:44;;;;;;;2.70;1.20;;;;;;;;;;5054445;28;20195;-52
2023/02/21 12:34:13;;;;;;;1.67;1.20;;;;;;;;;;5055316;28;20187;-52
2023/02/21 12:36:44;;;;;;;1.65;1.00;;;;;;;;;;5055597;28;20576;-52
2023/02/21 12:39:24;;;;;;;2.40;1.40;;;;;;;;;;5059700;28;20190;-52
2023/02/21 12:41:59;;;;;;;2.63;1.38;;;;;;;;;;5056953;28;20189;-52
2023/02/21 12:44:27;;;;;;;4.72;1.20;;;;;;;;;;5048425;28;20183;-52
2023/02/21 12:47:05;;;;;;;3.50;1.40;;;;;;;;;;5055271;28;20473;-52
2023/02/21 12:49:45;;;;;;;2.42;1.10;;;;;;;;;;5051279;28;20289;-52
2023/02/21 12:52:40;;;;;;;3.28;1.17;;;;;;;;;;5053304;28;20205;-52
2023/02/21 12:55:13;;;;;;;3.75;1.33;;;;;;;;;;5047780;28;20301;-52
2023/02/21 12:57:58;;;;;;;3.00;1.20;;;;;;;;;;5054280;28;20180;-52
2023/02/21 13:00:33;;;;;;;1.67;0.95;;;;;;;;;;5054867;28;20189;-52
2023/02/21 13:03:16;;;;;;;5.80;1.20;;;;;;;;;;5054845;28;20259;-52
2023/02/21 13:05:45;;;;;;;4.57;1.58;;;;;;;;;;5052353;28;20272;-52
2023/02/21 13:08:14;;;;;;;5.88;1.27;;;;;;;;;;5045393;28;20283;-51
2023/02/21 13:10:49;;;;;;;5.25;1.80;;;;;;;;;;5059249;28;20244;-52
2023/02/21 13:13:18;;;;;;;4.75;1.58;;;;;;;;;;5047787;28;20598;-52
2023/02/21 13:15:45;;;;;;;4.97;1.70;;;;;;;;;;5053712;28;20198;-52
2023/02/21 13:18:31;;;;;;;5.20;1.77;;;;;;;;;;5049842;28;20200;-52
2023/02/21 13:20:57;;;;;;;5.18;1.65;;;;;;;;;;5046787;28;20181;-52
2023/02/21 13:26:15;;;;;;;4.82;1.73;;;;;;;;;;5052336;28;20642;-52
2023/02/21 13:28:43;;;;;;;7.03;1.95;;;;;;;;;;5053461;28;20198;-52
2023/02/21 13:31:17;;;;;;;4.68;1.30;;;;;;;;;;5052870;28;20221;-52
2023/02/21 13:33:55;;;;;;;5.22;1.65;;;;;;;;;;5049245;28;20515;-52
2023/02/21 13:36:42;;;;;;;5.53;1.70;;;;;;;;;;5047862;28;20185;-52
2023/02/21 13:39:08;;;;;;;5.28;1.35;;;;;;;;;;5057558;28;20265;-52
2023/02/21 13:41:40;;;;;;;4.63;1.88;;;;;;;;;;5064646;28;20210;-52
2023/02/21 13:44:07;;;;;;;4.60;1.40;;;;;;;;;;5066318;28;20176;-52
2023/02/21 13:46:33;;;;;;;4.55;2.42;;;;;;;;;;5052719;28;20171;-52
2023/02/21 13:49:18;;;;;;;9.93;4.38;;;;;;;;;;5048345;28;20245;-52
2023/02/21 13:51:45;;;;;;;13.85;5.90;;;;;;;;;;5044804;28;20261;-52
2023/02/21 13:54:12;;;;;;;15.77;5.97;;;;;;;;;;5049429;28;20250;-52
2023/02/21 13:56:42;;;;;;;37.47;13.38;;;;;;;;;;5050147;28;20168;-52
2023/02/21 13:59:27;;;;;;;64.32;22.98;;;;;;;;;;5050280;28;20576;-52
2023/02/21 14:02:13;;;;;;;153.23;54.45;;;;;;;;;;5052454;28;20187;-52
2023/02/21 14:04:49;;;;;;;261.75;88.15;;;;;;;;;;5046943;28;20633;-52
2023/02/21 14:07:15;;;;;;;317.05;108.18;;;;;;;;;;5060308;28;20490;-52
2023/02/21 14:09:41;;;;;;;329.02;122.90;;;;;;;;;;5051148;28;20180;-52
2023/02/21 14:12:07;;;;;;;386.00;140.73;;;;;;;;;;5045391;28;20221;-52
2023/02/21 14:14:38;;;;;;;407.33;152.85;;;;;;;;;;5042724;28;20179;-52
2023/02/21 14:17:04;;;;;;;390.30;148.57;;;;;;;;;;5051295;28;20179;-52
2023/02/21 14:19:40;;;;;;;400.27;158.95;;;;;;;;;;5047296;28;20188;-52
2023/02/21 14:22:16;;;;;;;390.25;154.55;;;;;;;;;;5048337;28;20471;-52
2023/02/21 14:24:44;;;;;;;388.27;148.55;;;;;;;;;;5051353;28;20174;-52
2023/02/21 14:27:11;;;;;;;381.27;145.65;;;;;;;;;;5068257;28;20232;-52
2023/02/21 14:29:44;;;;;;;371.10;143.70;;;;;;;;;;5069463;28;20194;-52
2023/02/21 14:32:10;;;;;;;341.05;131.95;;;;;;;;;;5067326;28;20551;-52
2023/02/21 14:34:53;;;;;;;336.67;128.40;;;;;;;;;;5050710;28;20174;-52
2023/02/21 14:37:18;;;;;;;312.83;122.15;;;;;;;;;;5065585;28;20636;-52
2023/02/21 14:39:47;;;;;;;299.52;117.72;;;;;;;;;;5055230;28;20206;-52
2023/02/21 14:42:31;;;;;;;282.50;114.13;;;;;;;;;;5049561;28;20191;-52
2023/02/21 14:45:09;;;;;;;256.55;103.45;;;;;;;;;;5068793;28;20557;-52
2023/02/21 14:47:56;;;;;;;233.30;96.05;;;;;;;;;;5057136;28;20179;-52
2023/02/21 14:50:46;;;;;;;227.23;89.97;;;;;;;;;;5061788;28;20256;-52
2023/02/21 14:53:31;;;;;;;204.68;80.88;;;;;;;;;;5053155;28;20276;-52
2023/02/21 14:56:02;;;;;;;194.95;78.70;;;;;;;;;;5053675;28;20183;-52
2023/02/21 14:58:36;;;;;;;195.00;75.97;;;;;;;;;;5057014;28;20261;-52
2023/02/21 15:01:14;;;;;;;174.93;70.40;;;;;;;;;;5053756;28;20206;-52
2023/02/21 15:03:54;;;;;;;173.48;71.65;;;;;;;;;;5050138;28;20411;-52
2023/02/21 15:06:23;;;;;;;164.68;66.95;;;;;;;;;;5054365;28;20244;-52
2023/02/21 15:08:50;;;;;;;172.35;68.00;;;;;;;;;;5056979;28;20470;-52
2023/02/21 15:11:35;;;;;;;159.25;63.42;;;;;;;;;;5059437;28;20188;-52
2023/02/21 15:14:21;;;;;;;168.68;67.88;;;;;;;;;;5065230;28;20167;-52
2023/02/21 15:16:48;;;;;;;165.90;65.07;;;;;;;;;;5056828;28;20179;-52
2023/02/21 15:19:27;;;;;;;153.60;69.35;;;;;;;;;;5050097;28;20194;-52
2023/02/21 15:22:16;;;;;;;165.48;67.97;;;;;;;;;;5050992;28;20182;-52
2023/02/21 15:25:01;;;;;;;188.10;73.38;;;;;;;;;;5045865;28;20195;-52
2023/02/21 15:27:27;;;;;;;194.32;77.28;;;;;;;;;;5066263;28;20232;-52
2023/02/21 15:30:04;;;;;;;204.65;81.05;;;;;;;;;;5062186;28;20247;-52
2023/02/21 15:32:30;;;;;;;198.20;80.97;;;;;;;;;;5059165;28;20212;-52
2023/02/21 15:34:56;;;;;;;237.95;88.97;;;;;;;;;;5074136;28;20261;-52
2023/02/21 15:37:24;;;;;;;231.68;85.60;;;;;;;;;;5051601;28;20278;-52
2023/02/21 15:39:52;;;;;;;215.50;84.88;;;;;;;;;;5060193;28;20257;-52
2023/02/21 15:42:18;;;;;;;219.43;87.15;;;;;;;;;;5070500;28;20177;-52
2023/02/21 15:44:56;;;;;;;227.85;86.82;;;;;;;;;;5068604;28;20183;-52
2023/02/21 15:47:23;;;;;;;229.88;88.75;;;;;;;;;;5072694;28;20277;-52
2023/02/21 15:49:59;;;;;;;225.00;90.50;;;;;;;;;;5053986;28;20237;-52
2023/02/21 15:52:34;;;;;;;248.32;91.90;;;;;;;;;;5056572;28;20277;-52
2023/02/21 15:55:18;;;;;;;233.18;95.43;;;;;;;;;;5063894;28;20329;-52
2023/02/21 15:57:45;;;;;;;219.68;87.40;;;;;;;;;;5058308;28;20389;-52
2023/02/21 16:00:18;;;;;;;236.82;88.07;;;;;;;;;;5053007;28;20185;-51
2023/02/21 16:02:45;;;;;;;211.13;80.88;;;;;;;;;;5054066;28;20459;-52
2023/02/21 16:05:24;;;;;;;208.77;78.88;;;;;;;;;;5060155;28;20175;-52
2023/02/21 16:07:53;;;;;;;195.73;74.50;;;;;;;;;;5048210;28;20184;-51
2023/02/21 16:10:21;;;;;;;199.20;73.60;;;;;;;;;;5054603;28;20186;-52
2023/02/21 16:12:48;;;;;;;176.05;66.47;;;;;;;;;;5048461;28;20205;-52
2023/02/21 16:15:17;;;;;;;171.18;67.97;;;;;;;;;;5067365;28;20179;-52
2023/02/21 16:17:44;;;;;;;160.57;62.78;;;;;;;;;;5058449;28;20599;-52
2023/02/21 16:20:18;;;;;;;141.35;58.22;;;;;;;;;;5046714;28;20188;-52
2023/02/21 16:22:46;;;;;;;132.65;53.92;;;;;;;;;;5050772;28;20604;-52
2023/02/21 16:25:12;;;;;;;127.88;52.17;;;;;;;;;;5048334;28;20495;-51
2023/02/21 16:27:39;;;;;;;140.98;51.08;;;;;;;;;;5052444;28;20179;-52
2023/02/21 16:30:06;;;;;;;115.72;47.35;;;;;;;;;;5061342;28;20194;-52
2023/02/21 16:32:31;;;;;;;122.95;48.72;;;;;;;;;;5066850;28;20210;-51
2023/02/21 16:34:57;;;;;;;113.90;47.35;;;;;;;;;;5066907;28;20186;-52
2023/02/21 16:37:25;;;;;;;108.60;47.13;;;;;;;;;;5061845;28;20244;-52
2023/02/21 16:39:50;;;;;;;118.63;46.70;;;;;;;;;;5047584;28;20281;-52
2023/02/21 16:42:16;;;;;;;96.95;44.78;;;;;;;;;;5063950;28;20262;-52
2023/02/21 16:44:42;;;;;;;105.60;45.05;;;;;;;;;;5067373;28;20179;-51
2023/02/21 16:47:13;;;;;;;108.28;44.58;;;;;;;;;;5053808;28;20187;-52
2023/02/21 16:49:39;;;;;;;101.40;42.65;;;;;;;;;;5061181;28;20496;-51
2023/02/21 16:52:04;;;;;;;100.50;42.13;;;;;;;;;;5057850;28;20234;-52
2023/02/21 16:54:30;;;;;;;97.95;40.75;;;;;;;;;;5054225;28;20205;-52
2023/02/21 16:56:56;;;;;;;94.00;40.90;;;;;;;;;;5047893;28;20489;-52
2023/02/21 16:59:23;;;;;;;87.72;39.42;;;;;;;;;;5053664;28;20214;-52
2023/02/21 17:01:49;;;;;;;96.28;37.75;;;;;;;;;;5062061;28;20178;-52
2023/02/21 17:04:17;;;;;;;82.25;37.92;;;;;;;;;;5049338;28;20238;-52